Alturas, California
Current Conditions -  °F | °C
As of 4:55 AM on Saturday 25 Oct 2014 (Local Time) from KAAT Reporting Station
Clear Clear  
Wind Chill: 11°   Ceiling: Unl
Heat Index: 11°   Visibility: 10mi
Dew Point: -1°   Wind: 10mph
Humidity: 45%   Direction: 210°SSW
Pressure: 29.83"   Gusts: NA
Location:  41.49°N, 120.54°W
Report Text: KAAT 251155Z AUTO 21009KT 10SM CLR 11/M01 A2983 RMK AO2 SLP069 T01111006 10150 20083 56015
Loading
Personal Weather Stations






























Interactive Weather Map
Tropical Storm Tracking
New forecast layout! Learn more

10-Day Weather Forecast

Advertisements
Track Severe Weather on mobile